createdAt,value
2018-09-20T00:02:19.110Z,72.39
2018-09-20T00:04:51.386Z,72.01
2018-09-20T00:07:23.827Z,71.82
2018-09-20T00:09:56.089Z,72.04
2018-09-20T00:12:28.361Z,72.32
2018-09-20T00:15:00.669Z,71.93
2018-09-20T00:17:33.008Z,72.71
2018-09-20T00:20:05.657Z,72.38
2018-09-20T00:22:37.899Z,72.43
2018-09-20T00:25:10.183Z,72.17
2018-09-20T00:27:42.566Z,72.18
2018-09-20T00:30:14.844Z,72.69
2018-09-20T00:32:47.072Z,72.24
2018-09-20T00:35:19.349Z,72.30
2018-09-20T00:37:51.609Z,72.28
2018-09-20T00:40:23.873Z,72.67
2018-09-20T00:42:56.093Z,73.68
2018-09-20T00:45:28.417Z,73.64
2018-09-20T00:48:00.782Z,72.77
2018-09-20T00:50:33.083Z,72.53
2018-09-20T00:53:05.853Z,72.88
2018-09-20T00:55:38.111Z,73.17
2018-09-20T00:58:10.333Z,72.52
2018-09-20T01:00:42.661Z,73.29
2018-09-20T01:03:14.913Z,73.28
2018-09-20T01:05:47.206Z,73.11
2018-09-20T01:08:19.462Z,73.25
2018-09-20T01:10:51.745Z,73.54
2018-09-20T01:13:23.997Z,72.91
2018-09-20T01:15:56.257Z,73.94
2018-09-20T01:18:28.497Z,73.74
2018-09-20T01:21:00.741Z,73.38
2018-09-20T01:23:33.029Z,73.10
2018-09-20T01:26:05.344Z,74.27
2018-09-20T01:28:37.557Z,74.06
2018-09-20T01:31:09.818Z,74.39
2018-09-20T01:33:42.052Z,74.50
2018-09-20T01:36:14.339Z,74.42
2018-09-20T01:38:46.596Z,74.11
2018-09-20T01:41:18.839Z,73.88
2018-09-20T01:43:51.089Z,74.34
2018-09-20T01:46:23.324Z,74.17
2018-09-20T01:48:55.580Z,74.08
2018-09-20T01:51:27.898Z,73.83
2018-09-20T01:54:00.167Z,73.62
2018-09-20T01:56:32.464Z,73.78
2018-09-20T01:59:04.750Z,73.97
2018-09-20T02:01:37.076Z,73.92
2018-09-20T02:04:09.319Z,73.64
2018-09-20T02:06:41.600Z,73.74
2018-09-20T02:09:13.888Z,74.00
2018-09-20T02:11:46.143Z,74.33
2018-09-20T02:14:18.393Z,74.38
2018-09-20T02:16:50.634Z,74.05
2018-09-20T02:19:22.873Z,74.23
2018-09-20T02:21:55.171Z,74.04
2018-09-20T02:24:27.416Z,74.86
2018-09-20T02:26:59.645Z,74.87
2018-09-20T02:29:31.882Z,74.52
2018-09-20T02:32:04.132Z,75.13
2018-09-20T02:34:36.381Z,74.74
2018-09-20T02:37:08.674Z,74.54
2018-09-20T02:39:40.915Z,74.76
2018-09-20T02:42:13.191Z,74.07
2018-09-20T02:44:45.530Z,74.75
2018-09-20T02:47:17.764Z,74.85
2018-09-20T02:49:50.030Z,75.36
2018-09-20T02:52:22.261Z,75.08
2018-09-20T02:54:54.510Z,75.31
2018-09-20T02:57:26.750Z,74.74
2018-09-20T02:59:59.035Z,75.19
2018-09-20T03:02:31.329Z,75.06
2018-09-20T03:05:03.897Z,74.73
2018-09-20T03:07:36.142Z,75.54
2018-09-20T03:10:08.430Z,75.26
2018-09-20T03:12:40.731Z,75.73
2018-09-20T03:15:13.010Z,75.42
2018-09-20T03:17:45.241Z,76.04
2018-09-20T03:20:17.590Z,76.37
2018-09-20T03:22:49.808Z,76.07
2018-09-20T03:25:22.058Z,76.42
2018-09-20T03:27:54.352Z,76.40
2018-09-20T03:30:26.842Z,75.72
2018-09-20T03:32:59.061Z,76.01
2018-09-20T03:35:31.345Z,75.97
2018-09-20T03:38:03.591Z,75.54
2018-09-20T03:40:35.875Z,75.03
2018-09-20T03:43:08.149Z,75.35
2018-09-20T03:45:40.387Z,75.48
2018-09-20T03:48:12.689Z,75.86
2018-09-20T03:50:44.973Z,75.85
2018-09-20T03:53:17.224Z,75.84
2018-09-20T03:55:49.505Z,75.87
2018-09-20T03:58:21.785Z,76.37
2018-09-20T04:00:54.052Z,76.64
2018-09-20T04:03:26.322Z,76.37
2018-09-20T04:05:58.612Z,76.63
2018-09-20T04:08:30.893Z,76.79
2018-09-20T04:11:03.142Z,76.66
2018-09-20T04:13:35.465Z,76.41
2018-09-20T04:16:07.704Z,77.16
2018-09-20T04:18:39.995Z,76.58
2018-09-20T04:21:16.388Z,76.42
2018-09-20T04:23:48.675Z,76.16
2018-09-20T04:26:20.896Z,76.09
2018-09-20T04:28:53.261Z,75.89
2018-09-20T04:31:26.115Z,75.60
2018-09-20T04:33:59.381Z,76.02
2018-09-20T04:36:31.666Z,76.31
2018-09-20T04:39:06.975Z,75.79
2018-09-20T04:41:39.249Z,75.84
2018-09-20T04:44:11.496Z,75.99
2018-09-20T04:46:43.782Z,75.82
2018-09-20T04:49:16.058Z,75.70
2018-09-20T04:51:48.423Z,76.00
2018-09-20T04:54:20.711Z,75.64
2018-09-20T04:56:52.988Z,75.59
2018-09-20T04:59:25.274Z,75.57
2018-09-20T05:01:57.740Z,75.74
2018-09-20T05:04:30.124Z,76.20
2018-09-20T05:07:02.375Z,76.25
2018-09-20T05:09:34.670Z,76.91
2018-09-20T05:12:06.928Z,76.75
2018-09-20T05:14:39.213Z,77.52
2018-09-20T05:17:11.475Z,77.33
2018-09-20T05:19:43.816Z,77.23
2018-09-20T05:22:16.101Z,76.57
2018-09-20T05:24:48.393Z,76.39
2018-09-20T05:27:20.669Z,76.35
2018-09-20T05:29:53.011Z,76.52
2018-09-20T05:32:25.295Z,76.13
2018-09-20T05:34:57.632Z,76.59
2018-09-20T05:37:29.876Z,76.71
2018-09-20T05:40:02.180Z,77.09
2018-09-20T05:42:34.428Z,76.12
2018-09-20T05:45:06.833Z,74.95
2018-09-20T05:47:39.092Z,74.75
2018-09-20T05:50:11.380Z,74.43
2018-09-20T05:52:43.653Z,74.46
2018-09-20T05:55:15.958Z,74.45
2018-09-20T05:57:48.249Z,74.21
2018-09-20T06:00:20.592Z,73.70
2018-09-20T06:02:53.032Z,74.02
2018-09-20T06:05:25.337Z,74.29
2018-09-20T06:07:57.660Z,73.60
2018-09-20T06:10:29.960Z,72.28
2018-09-20T06:13:02.313Z,70.37
2018-09-20T06:15:34.614Z,68.90
2018-09-20T06:18:06.861Z,67.73
2018-09-20T06:20:39.211Z,67.79
2018-09-20T06:23:11.484Z,67.15
2018-09-20T06:25:44.130Z,66.51
2018-09-20T06:28:16.381Z,64.89
2018-09-20T06:30:48.755Z,63.54
2018-09-20T06:33:21.023Z,62.18
2018-09-20T06:35:53.416Z,60.99
2018-09-20T06:38:25.687Z,59.93
2018-09-20T06:40:57.978Z,58.11
2018-09-20T06:43:30.224Z,56.93
2018-09-20T06:46:02.538Z,57.34
2018-09-20T06:48:34.780Z,55.58
2018-09-20T06:51:07.132Z,54.15
2018-09-20T06:53:39.392Z,53.80
2018-09-20T06:56:11.815Z,53.21
2018-09-20T06:58:44.097Z,53.05
2018-09-20T07:01:16.386Z,53.47
2018-09-20T07:03:48.720Z,53.81
2018-09-20T07:06:21.462Z,53.75
2018-09-20T07:08:53.697Z,54.11
2018-09-20T07:11:25.992Z,54.44
2018-09-20T07:13:58.313Z,54.49
2018-09-20T07:16:30.646Z,53.49
2018-09-20T07:19:03.290Z,52.82
2018-09-20T07:21:35.520Z,53.93
2018-09-20T07:24:07.750Z,53.67
2018-09-20T07:26:40.034Z,53.69
2018-09-20T07:29:12.354Z,53.67
2018-09-20T07:31:44.624Z,53.49
2018-09-20T07:34:16.893Z,52.65
2018-09-20T07:36:49.212Z,52.54
2018-09-20T07:39:21.478Z,52.96
2018-09-20T07:41:53.799Z,53.06
2018-09-20T07:44:26.054Z,52.84
2018-09-20T07:46:58.313Z,51.94
2018-09-20T07:49:30.589Z,52.35
2018-09-20T07:52:02.949Z,51.39
2018-09-20T07:54:35.251Z,52.02
2018-09-20T07:57:07.709Z,51.28
2018-09-20T07:59:40.031Z,51.30
2018-09-20T08:02:12.344Z,50.05
2018-09-20T08:04:44.636Z,50.45
2018-09-20T08:07:17.108Z,49.79
2018-09-20T08:09:49.319Z,49.17
2018-09-20T08:12:21.592Z,47.58
2018-09-20T08:14:53.875Z,48.33
2018-09-20T08:17:26.144Z,47.74
2018-09-20T08:19:58.414Z,47.10
2018-09-20T08:22:30.724Z,47.39
2018-09-20T08:25:03.062Z,46.03
2018-09-20T08:27:35.304Z,46.65
2018-09-20T08:30:07.685Z,44.63
2018-09-20T08:32:39.989Z,45.42
2018-09-20T08:35:12.261Z,45.20
2018-09-20T08:37:44.600Z,45.08
2018-09-20T08:40:17.134Z,44.47
2018-09-20T08:42:49.427Z,44.65
2018-09-20T08:45:21.721Z,44.21
2018-09-20T08:47:53.981Z,44.16
2018-09-20T08:50:26.302Z,42.53
2018-09-20T08:52:58.596Z,43.17
2018-09-20T08:55:30.886Z,42.80
2018-09-20T08:58:03.160Z,43.09
2018-09-20T09:00:35.429Z,41.91
2018-09-20T09:03:07.690Z,41.44
2018-09-20T09:05:40.083Z,42.92
2018-09-20T09:08:12.345Z,42.40
2018-09-20T09:10:44.629Z,41.68
2018-09-20T09:13:16.903Z,40.80
2018-09-20T09:15:49.178Z,41.14
2018-09-20T09:18:21.520Z,41.05
2018-09-20T09:20:53.809Z,41.84
2018-09-20T09:23:26.134Z,41.75
2018-09-20T09:25:58.456Z,42.14
2018-09-20T09:28:30.814Z,41.49
2018-09-20T09:31:03.067Z,40.81
2018-09-20T09:33:35.383Z,40.91
2018-09-20T09:36:07.693Z,40.45
2018-09-20T09:38:40.080Z,40.24
2018-09-20T09:41:12.353Z,40.32
2018-09-20T09:43:44.593Z,40.10
2018-09-20T09:46:16.941Z,39.05
2018-09-20T09:48:49.333Z,39.32
2018-09-20T09:51:21.591Z,40.30
2018-09-20T09:53:53.904Z,40.58
2018-09-20T09:56:26.153Z,39.97
2018-09-20T09:58:58.429Z,40.61
2018-09-20T10:01:30.765Z,39.50
2018-09-20T10:04:03.229Z,40.05
2018-09-20T10:06:35.500Z,39.38
2018-09-20T10:09:09.246Z,39.08
2018-09-20T10:11:41.485Z,39.23
2018-09-20T10:14:13.771Z,39.37
2018-09-20T10:16:46.057Z,39.86
2018-09-20T10:19:18.353Z,40.13
2018-09-20T10:21:50.642Z,40.54
2018-09-20T10:24:22.941Z,39.79
2018-09-20T10:26:55.261Z,39.51
2018-09-20T10:29:27.570Z,38.91
2018-09-20T10:31:59.875Z,38.81
2018-09-20T10:34:32.226Z,38.19
2018-09-20T10:37:05.575Z,38.36
2018-09-20T10:39:37.825Z,37.87
2018-09-20T10:42:10.145Z,37.55
2018-09-20T10:44:42.412Z,38.06
2018-09-20T10:47:14.788Z,37.41
2018-09-20T10:49:47.058Z,37.91
2018-09-20T10:52:19.359Z,37.83
2018-09-20T10:54:51.654Z,38.31
2018-09-20T10:57:24.031Z,38.26
2018-09-20T10:59:56.297Z,37.73
2018-09-20T11:02:28.612Z,38.15
2018-09-20T11:05:01.014Z,37.74
2018-09-20T11:07:33.304Z,37.22
2018-09-20T11:10:05.656Z,36.81
2018-09-20T11:12:37.993Z,36.47
2018-09-20T11:15:10.356Z,36.70
2018-09-20T11:17:42.668Z,36.57
2018-09-20T11:20:14.929Z,36.57
2018-09-20T11:22:47.251Z,36.40
2018-09-20T11:25:19.561Z,35.33
2018-09-20T11:30:31.070Z,36.23
2018-09-20T11:33:03.434Z,36.44
2018-09-20T11:35:35.706Z,35.31
2018-09-20T11:38:08.005Z,35.14
2018-09-20T11:40:40.268Z,35.09
2018-09-20T11:43:12.609Z,34.91
2018-09-20T11:45:44.889Z,35.09
2018-09-20T11:48:17.188Z,35.24
2018-09-20T11:50:49.446Z,35.49
2018-09-20T11:53:21.748Z,37.02
2018-09-20T11:55:54.025Z,36.39
2018-09-20T11:58:26.313Z,36.41
2018-09-20T12:00:58.666Z,36.70
2018-09-20T12:03:30.965Z,36.96
2018-09-20T12:06:03.247Z,36.56
2018-09-20T12:08:35.532Z,36.91
2018-09-20T12:11:07.949Z,36.23
2018-09-20T12:13:40.288Z,36.29
2018-09-20T12:16:12.582Z,36.49
2018-09-20T12:18:44.901Z,36.12
2018-09-20T12:21:17.201Z,36.71
2018-09-20T12:23:49.517Z,36.66
2018-09-20T12:26:22.069Z,36.01
2018-09-20T12:28:54.385Z,35.53
2018-09-20T12:31:26.769Z,36.18
2018-09-20T12:33:59.049Z,35.67
2018-09-20T12:36:31.332Z,35.19
2018-09-20T12:39:06.053Z,34.28
2018-09-20T12:41:38.569Z,34.53
2018-09-20T12:44:10.824Z,35.11
2018-09-20T12:46:43.146Z,33.99
2018-09-20T12:49:15.424Z,34.99
2018-09-20T12:51:47.718Z,33.78
2018-09-20T12:54:20.013Z,34.15
2018-09-20T12:56:52.302Z,33.08
2018-09-20T12:59:24.712Z,33.04
2018-09-20T13:01:57.020Z,33.66
2018-09-20T13:04:29.318Z,33.85
2018-09-20T13:07:01.625Z,34.10
2018-09-20T13:09:33.945Z,35.51
2018-09-20T13:12:06.311Z,35.96
2018-09-20T13:14:38.571Z,35.97
2018-09-20T13:17:10.899Z,34.45
2018-09-20T13:19:43.225Z,33.98
2018-09-20T13:22:15.580Z,34.65
2018-09-20T13:24:47.885Z,34.16
2018-09-20T13:27:20.234Z,34.20
2018-09-20T13:29:52.541Z,33.78
2018-09-20T13:32:24.850Z,33.28
2018-09-20T13:34:57.193Z,33.68
2018-09-20T13:37:29.453Z,33.71
2018-09-20T13:40:01.845Z,33.19
2018-09-20T13:42:34.144Z,33.83
2018-09-20T13:45:06.507Z,33.88
2018-09-20T13:47:38.825Z,34.13
2018-09-20T13:50:11.207Z,33.04
2018-09-20T13:52:43.573Z,34.26
2018-09-20T13:55:15.879Z,32.90
2018-09-20T13:57:48.233Z,33.67
2018-09-20T14:00:20.669Z,34.30
2018-09-20T14:02:53.147Z,34.74
2018-09-20T14:05:25.553Z,35.15
2018-09-20T14:07:57.939Z,34.21
2018-09-20T14:10:30.269Z,33.68
2018-09-20T14:13:02.649Z,34.09
2018-09-20T14:15:35.037Z,34.98
2018-09-20T14:18:07.309Z,34.26
2018-09-20T14:20:39.648Z,34.87
2018-09-20T14:23:11.999Z,34.28
2018-09-20T14:25:44.401Z,34.55
2018-09-20T14:28:16.734Z,33.93
2018-09-20T14:30:49.100Z,34.87
2018-09-20T14:33:21.442Z,35.61
2018-09-20T14:35:53.793Z,35.63
2018-09-20T14:38:26.115Z,35.05
2018-09-20T14:40:58.440Z,35.72
2018-09-20T14:43:30.750Z,34.66
2018-09-20T14:46:03.093Z,34.48
2018-09-20T14:48:35.488Z,34.98
2018-09-20T14:51:08.089Z,33.69
2018-09-20T14:53:40.393Z,33.30
2018-09-20T14:56:12.786Z,33.72
2018-09-20T14:58:45.146Z,34.57
2018-09-20T15:01:17.437Z,34.98
2018-09-20T15:03:49.774Z,35.01
2018-09-20T15:06:22.100Z,35.25
2018-09-20T15:08:54.468Z,35.28
2018-09-20T15:11:26.794Z,34.92
2018-09-20T15:13:59.221Z,34.88
2018-09-20T15:16:31.598Z,35.10
2018-09-20T15:19:04.059Z,35.34
2018-09-20T15:21:36.347Z,35.32
2018-09-20T15:24:08.702Z,35.59
2018-09-20T15:26:41.017Z,36.13
2018-09-20T15:29:13.297Z,35.29
2018-09-20T15:31:45.624Z,35.68
2018-09-20T15:34:17.973Z,35.87
2018-09-20T15:36:50.281Z,36.14
2018-09-20T15:39:22.685Z,35.51
2018-09-20T15:41:55.059Z,35.88
2018-09-20T15:44:27.370Z,36.30
2018-09-20T15:46:59.637Z,36.07
2018-09-20T15:49:31.947Z,36.04
2018-09-20T15:52:04.293Z,36.11
2018-09-20T15:54:36.620Z,36.39
2018-09-20T15:57:08.918Z,36.14
2018-09-20T15:59:41.218Z,36.39
2018-09-20T16:02:13.492Z,36.52
2018-09-20T16:04:45.852Z,36.82
2018-09-20T16:07:18.150Z,36.97
2018-09-20T16:09:50.466Z,36.34
2018-09-20T16:12:22.823Z,36.79
2018-09-20T16:14:55.116Z,36.56
2018-09-20T16:17:27.434Z,37.31
2018-09-20T16:19:59.781Z,37.70
2018-09-20T16:22:32.123Z,37.60
2018-09-20T16:25:05.149Z,37.86
2018-09-20T16:27:37.504Z,38.53
2018-09-20T16:30:24.745Z,38.01
2018-09-20T16:33:18.622Z,38.36
2018-09-20T16:35:59.592Z,38.74
2018-09-20T16:38:40.803Z,39.46
2018-09-20T16:41:15.073Z,40.15
2018-09-20T16:43:47.437Z,40.39
2018-09-20T16:46:19.793Z,41.03
2018-09-20T16:48:52.033Z,41.78
2018-09-20T16:51:24.394Z,42.75
2018-09-20T16:53:56.709Z,42.59
2018-09-20T16:57:00.897Z,43.91
2018-09-20T16:59:33.147Z,43.61
2018-09-20T17:02:05.647Z,43.65
2018-09-20T17:04:38.001Z,45.14
2018-09-20T17:07:10.405Z,44.68
2018-09-20T17:09:42.688Z,45.40
2018-09-20T17:12:15.072Z,44.82
2018-09-20T17:14:47.420Z,46.18
2018-09-20T17:17:19.659Z,46.02
2018-09-20T17:19:52.044Z,47.22
2018-09-20T17:22:24.435Z,47.40
2018-09-20T17:24:56.749Z,47.00
2018-09-20T17:27:29.083Z,47.44
2018-09-20T17:30:01.434Z,48.44
2018-09-20T17:32:33.792Z,48.27
2018-09-20T17:35:06.217Z,49.10
2018-09-20T17:37:39.209Z,49.10
2018-09-20T17:40:12.990Z,49.85
2018-09-20T17:42:46.771Z,48.86
2018-09-20T17:45:19.123Z,49.18
2018-09-20T17:47:51.461Z,48.78
2018-09-20T17:50:23.860Z,48.95
2018-09-20T17:52:56.475Z,50.42
2018-09-20T17:55:29.224Z,50.85
2018-09-20T17:58:01.765Z,50.25
2018-09-20T18:00:34.168Z,51.16
2018-09-20T18:03:06.497Z,50.59
2018-09-20T18:05:38.810Z,50.69
2018-09-20T18:08:11.130Z,51.75
2018-09-20T18:10:43.438Z,51.35
2018-09-20T18:13:15.781Z,51.77
2018-09-20T18:15:48.164Z,51.92
2018-09-20T18:18:20.548Z,53.82
2018-09-20T18:20:52.878Z,54.04
2018-09-20T18:23:25.185Z,54.44
2018-09-20T18:25:57.593Z,54.39
2018-09-20T18:28:29.906Z,54.63
2018-09-20T18:31:02.299Z,55.06
2018-09-20T18:33:34.601Z,55.30
2018-09-20T18:36:06.981Z,55.20
2018-09-20T18:38:39.274Z,55.64
2018-09-20T18:41:11.634Z,56.33
2018-09-20T18:43:43.972Z,56.15
2018-09-20T18:46:16.396Z,56.03
2018-09-20T18:48:48.712Z,56.90
2018-09-20T18:51:21.161Z,56.89
2018-09-20T18:53:53.484Z,57.21
2018-09-20T18:56:25.881Z,56.74
2018-09-20T18:58:58.221Z,56.90
2018-09-20T19:01:30.583Z,58.18
2018-09-20T19:04:02.936Z,57.38
2018-09-20T19:06:35.318Z,57.28
2018-09-20T19:09:08.362Z,57.01
2018-09-20T19:11:40.788Z,56.84
2018-09-20T19:14:13.162Z,58.44
2018-09-20T19:16:45.482Z,56.75
2018-09-20T19:19:17.942Z,57.90
2018-09-20T19:21:50.290Z,57.17
2018-09-20T19:24:22.649Z,57.91
2018-09-20T19:26:54.978Z,58.35
2018-09-20T19:29:27.362Z,57.60
2018-09-20T19:31:59.754Z,57.91
2018-09-20T19:34:32.132Z,58.26
2018-09-20T19:37:04.567Z,58.35
2018-09-20T19:39:36.847Z,59.61
2018-09-20T19:42:09.229Z,59.58
2018-09-20T19:44:41.600Z,59.48
2018-09-20T19:47:13.973Z,59.62
2018-09-20T19:49:46.371Z,60.54
2018-09-20T19:52:18.842Z,60.95
2018-09-20T19:54:51.320Z,61.39
2018-09-20T19:57:23.630Z,61.78
2018-09-20T19:59:55.950Z,62.11
2018-09-20T20:02:28.293Z,61.72
2018-09-20T20:05:00.676Z,62.26
2018-09-20T20:07:33.054Z,62.11
2018-09-20T20:10:05.416Z,61.94
2018-09-20T20:12:37.829Z,61.89
2018-09-20T20:15:10.166Z,61.52
2018-09-20T20:17:42.696Z,61.69
2018-09-20T20:20:15.064Z,61.07
2018-09-20T20:22:47.465Z,61.42
2018-09-20T20:25:19.740Z,61.23
2018-09-20T20:27:52.095Z,61.70
2018-09-20T20:30:24.611Z,62.12
2018-09-20T20:32:56.966Z,61.91
2018-09-20T20:35:29.298Z,61.99
2018-09-20T20:38:01.950Z,62.91
2018-09-20T20:40:34.535Z,62.50
2018-09-20T20:43:07.270Z,62.33
2018-09-20T20:45:40.093Z,62.75
2018-09-20T20:48:14.259Z,62.72
2018-09-20T20:50:46.676Z,63.08
2018-09-20T20:53:19.001Z,62.66
2018-09-20T20:55:51.295Z,63.48
2018-09-20T20:58:23.707Z,63.32
2018-09-20T21:00:56.054Z,64.22
2018-09-20T21:03:28.437Z,63.70
2018-09-20T21:06:00.738Z,63.88
2018-09-20T21:08:33.030Z,64.71
2018-09-20T21:11:05.338Z,65.55
2018-09-20T21:13:37.757Z,65.84
2018-09-20T21:16:10.122Z,65.76
2018-09-20T21:18:42.550Z,65.91
2018-09-20T21:21:14.944Z,65.48
2018-09-20T21:23:47.288Z,65.32
2018-09-20T21:26:19.632Z,65.62
2018-09-20T21:28:51.954Z,65.91
2018-09-20T21:31:24.295Z,66.63
2018-09-20T21:33:57.075Z,66.57
2018-09-20T21:36:29.524Z,67.11
2018-09-20T21:39:01.876Z,67.47
2018-09-20T21:41:34.230Z,66.14
2018-09-20T21:44:06.611Z,66.13
2018-09-20T21:46:38.912Z,66.62
2018-09-20T21:49:11.172Z,66.46
2018-09-20T21:51:43.501Z,67.10
2018-09-20T21:54:15.816Z,67.53
2018-09-20T21:56:48.105Z,67.84
2018-09-20T21:59:20.408Z,68.21
2018-09-20T22:01:58.424Z,68.32
2018-09-20T22:04:31.596Z,67.79
2018-09-20T22:07:03.981Z,68.18
2018-09-20T22:09:36.408Z,67.90
2018-09-20T22:12:08.825Z,68.46
2018-09-20T22:14:41.124Z,68.07
2018-09-20T22:17:13.443Z,67.51
2018-09-20T22:19:45.783Z,67.60
2018-09-20T22:22:18.093Z,67.72
2018-09-20T22:24:50.395Z,68.11
2018-09-20T22:27:22.742Z,67.42
2018-09-20T22:29:55.034Z,68.62
2018-09-20T22:32:27.357Z,67.96
2018-09-20T22:34:59.679Z,67.94
2018-09-20T22:37:32.024Z,68.56
2018-09-20T22:40:04.521Z,68.06
2018-09-20T22:42:36.808Z,68.26
2018-09-20T22:45:09.119Z,69.14
2018-09-20T22:47:41.445Z,69.24
2018-09-20T22:50:13.701Z,69.10
2018-09-20T22:52:45.998Z,68.95
2018-09-20T22:55:18.299Z,68.84
2018-09-20T22:57:50.580Z,69.28
2018-09-20T23:00:25.474Z,68.90
2018-09-20T23:02:57.764Z,68.78
2018-09-20T23:05:30.065Z,69.68
2018-09-20T23:08:02.343Z,69.87
2018-09-20T23:10:34.665Z,69.81
2018-09-20T23:13:06.987Z,69.87
2018-09-20T23:15:39.297Z,70.29
2018-09-20T23:18:11.556Z,70.78
2018-09-20T23:20:43.901Z,70.83
2018-09-20T23:23:16.168Z,70.30
2018-09-20T23:25:48.439Z,70.22
2018-09-20T23:28:20.679Z,70.54
2018-09-20T23:30:52.974Z,70.04
2018-09-20T23:33:25.248Z,70.00
2018-09-20T23:35:57.507Z,70.14
2018-09-20T23:38:29.785Z,69.78
2018-09-20T23:41:02.067Z,70.28
2018-09-20T23:43:34.296Z,70.44
2018-09-20T23:46:06.613Z,70.26
2018-09-20T23:48:38.854Z,70.83
2018-09-20T23:51:11.176Z,70.66
2018-09-20T23:53:43.418Z,70.62
2018-09-20T23:56:15.699Z,70.52
2018-09-20T23:58:47.957Z,70.63
